createdAt,value
2019-04-27T00:00:39.092Z,1.20
2019-04-27T00:03:26.031Z,0.90
2019-04-27T00:06:08.471Z,0.40
2019-04-27T00:08:54.081Z,0.50
2019-04-27T00:11:37.441Z,0.30
2019-04-27T00:14:05.177Z,3.60
2019-04-27T00:16:40.496Z,0.30
2019-04-27T00:19:13.200Z,0.40
2019-04-27T00:21:47.165Z,0.90
2019-04-27T00:24:18.418Z,0.75
2019-04-27T00:26:47.874Z,0.55
2019-04-27T00:29:17.654Z,0.40
2019-04-27T00:31:47.568Z,1.52
2019-04-27T00:34:17.622Z,0.40
2019-04-27T00:37:01.342Z,0.28
2019-04-27T00:39:44.917Z,0.62
2019-04-27T00:42:16.344Z,0.75
2019-04-27T00:44:45.823Z,1.07
2019-04-27T00:47:15.342Z,0.57
2019-04-27T00:49:44.872Z,0.30
2019-04-27T00:52:14.333Z,0.40
2019-04-27T00:54:44.292Z,2.72
2019-04-27T00:57:33.723Z,2.75
2019-04-27T01:00:05.183Z,0.20
2019-04-27T01:02:43.519Z,0.25
2019-04-27T01:05:14.692Z,0.23
2019-04-27T01:07:44.163Z,0.20
2019-04-27T01:10:13.686Z,0.40
2019-04-27T01:12:43.125Z,0.33
2019-04-27T01:15:13.770Z,0.53
2019-04-27T01:17:44.590Z,0.37
2019-04-27T01:20:14.112Z,0.23
2019-04-27T01:22:43.572Z,0.90
2019-04-27T01:25:13.608Z,0.17
2019-04-27T01:27:53.758Z,0.20
2019-04-27T01:33:09.834Z,0.62
2019-04-27T01:35:40.351Z,1.33
2019-04-27T01:38:09.735Z,1.47
2019-04-27T01:40:39.126Z,0.37
2019-04-27T01:43:09.179Z,0.20
2019-04-27T01:45:39.203Z,0.20
2019-04-27T01:48:22.159Z,0.10
2019-04-27T01:50:39.645Z,0.30
2019-04-27T01:53:09.221Z,0.33
2019-04-27T01:55:40.708Z,0.50
2019-04-27T01:58:10.987Z,0.30
2019-04-27T02:00:59.504Z,0.37
2019-04-27T02:03:46.431Z,0.33
2019-04-27T02:06:15.994Z,0.20
2019-04-27T02:08:45.638Z,0.30
2019-04-27T02:11:15.171Z,0.20
2019-04-27T02:13:44.566Z,1.30
2019-04-27T02:16:14.195Z,0.30
2019-04-27T02:18:43.650Z,1.35
2019-04-27T02:21:13.126Z,0.30
2019-04-27T02:23:42.506Z,1.20
2019-04-27T02:26:11.900Z,0.33
2019-04-27T02:28:42.928Z,0.20
2019-04-27T02:31:19.765Z,0.20
2019-04-27T02:33:59.411Z,0.20
2019-04-27T02:36:30.349Z,0.35
2019-04-27T02:38:59.676Z,0.20
2019-04-27T02:41:29.800Z,0.43
2019-04-27T02:44:15.906Z,0.20
2019-04-27T02:46:45.367Z,0.20
2019-04-27T02:49:14.817Z,0.20
2019-04-27T02:51:49.594Z,0.20
2019-04-27T02:54:20.435Z,0.20
2019-04-27T02:56:52.783Z,0.20
2019-04-27T02:59:22.133Z,0.73
2019-04-27T03:01:53.649Z,0.40
2019-04-27T03:04:23.093Z,0.20
2019-04-27T03:06:52.472Z,0.37
2019-04-27T03:09:21.949Z,1.15
2019-04-27T03:11:51.892Z,0.20
2019-04-27T03:14:40.329Z,0.20
2019-04-27T03:17:26.825Z,0.30
2019-04-27T03:20:13.826Z,0.40
2019-04-27T03:22:44.864Z,0.25
2019-04-27T03:25:16.823Z,0.50
2019-04-27T03:27:53.956Z,0.50
2019-04-27T03:30:24.033Z,0.20
2019-04-27T03:32:56.642Z,0.30
2019-04-27T03:35:24.750Z,0.30
2019-04-27T03:37:54.194Z,0.20
2019-04-27T03:40:23.655Z,2.52
2019-04-27T03:42:54.754Z,0.20
2019-04-27T03:45:24.497Z,0.20
2019-04-27T03:47:54.350Z,0.30
2019-04-27T03:50:25.405Z,0.20
2019-04-27T03:53:10.315Z,0.30
2019-04-27T03:55:42.890Z,0.20
2019-04-27T03:58:21.726Z,0.23
2019-04-27T04:00:52.999Z,0.20
2019-04-27T04:03:22.461Z,0.50
2019-04-27T04:05:52.204Z,2.17
2019-04-27T04:08:21.983Z,0.28
2019-04-27T04:10:53.435Z,0.30
2019-04-27T04:13:24.768Z,0.20
2019-04-27T04:16:00.260Z,0.20
2019-04-27T04:18:31.791Z,0.30
2019-04-27T04:21:01.381Z,0.30
2019-04-27T04:23:30.777Z,0.20
2019-04-27T04:26:00.171Z,0.25
2019-04-27T04:28:29.718Z,0.60
2019-04-27T04:31:00.469Z,0.30
2019-04-27T04:33:30.458Z,0.20
2019-04-27T04:36:00.034Z,0.87
2019-04-27T04:38:30.520Z,0.20
2019-04-27T04:41:10.880Z,0.30
2019-04-27T04:43:41.900Z,1.20
2019-04-27T04:46:29.810Z,0.67
2019-04-27T04:49:00.336Z,0.23
2019-04-27T04:51:30.487Z,0.28
2019-04-27T04:54:00.903Z,0.28
2019-04-27T04:56:30.352Z,1.37
2019-04-27T04:59:00.246Z,0.20
2019-04-27T05:01:30.051Z,0.77
2019-04-27T05:03:59.529Z,1.45
2019-04-27T05:06:29.322Z,0.78
2019-04-27T05:08:59.530Z,3.08
2019-04-27T05:11:29.774Z,0.30
2019-04-27T05:14:01.466Z,0.30
2019-04-27T05:16:32.915Z,0.50
2019-04-27T05:19:02.416Z,0.80
2019-04-27T05:21:33.426Z,0.30
2019-04-27T05:24:02.818Z,0.30
2019-04-27T05:26:32.202Z,0.40
2019-04-27T05:29:01.593Z,1.50
2019-04-27T05:31:31.043Z,2.10
2019-04-27T05:34:00.436Z,1.72
2019-04-27T05:36:29.819Z,0.68
2019-04-27T05:38:59.718Z,1.20
2019-04-27T05:41:31.131Z,0.68
2019-04-27T05:44:03.314Z,0.97
2019-04-27T05:46:52.670Z,10.67
2019-04-27T05:49:29.364Z,3.45
2019-04-27T05:51:59.511Z,0.30
2019-04-27T05:54:29.399Z,0.50
2019-04-27T05:56:59.259Z,0.53
2019-04-27T05:59:29.845Z,0.42
2019-04-27T06:04:30.256Z,0.20
2019-04-27T06:07:01.053Z,0.30
2019-04-27T06:09:30.493Z,0.60
2019-04-27T06:11:59.873Z,0.20
2019-04-27T06:14:29.399Z,2.40
2019-04-27T06:16:59.652Z,0.20
2019-04-27T06:19:29.259Z,0.30
2019-04-27T06:22:00.981Z,0.23
2019-04-27T06:24:30.642Z,0.20
2019-04-27T06:27:00.026Z,0.30
2019-04-27T06:29:29.414Z,1.62
2019-04-27T06:31:59.337Z,0.50
2019-04-27T06:34:31.013Z,0.37
2019-04-27T06:37:00.107Z,0.68
2019-04-27T06:39:29.931Z,0.20
2019-04-27T06:42:01.257Z,0.20
2019-04-27T06:44:30.596Z,0.20
2019-04-27T06:46:59.973Z,0.20
2019-04-27T06:49:29.536Z,0.33
2019-04-27T06:51:58.928Z,0.27
2019-04-27T06:54:29.139Z,0.30
2019-04-27T06:56:59.258Z,0.20
2019-04-27T06:59:29.062Z,2.20
2019-04-27T07:02:00.925Z,0.20
2019-04-27T07:04:30.384Z,0.20
2019-04-27T07:07:01.659Z,0.25
2019-04-27T07:09:30.859Z,0.67
2019-04-27T07:12:00.239Z,0.13
2019-04-27T07:14:29.643Z,0.34
2019-04-27T07:16:59.293Z,0.30
2019-04-27T07:19:30.205Z,0.20
2019-04-27T07:21:59.642Z,0.27
2019-04-27T07:24:29.340Z,0.28
2019-04-27T07:26:59.690Z,0.23
2019-04-27T07:29:29.574Z,0.20
2019-04-27T07:31:59.725Z,0.35
2019-04-27T07:34:30.530Z,0.30
2019-04-27T07:37:00.050Z,0.30
2019-04-27T07:39:29.528Z,0.20
2019-04-27T07:41:58.904Z,0.30
2019-04-27T07:44:41.819Z,0.33
2019-04-27T07:47:15.306Z,0.20
2019-04-27T07:49:45.528Z,0.20
2019-04-27T07:52:14.913Z,0.23
2019-04-27T07:54:44.432Z,0.20
2019-04-27T07:57:13.824Z,0.60
2019-04-27T07:59:43.269Z,0.77
2019-04-27T08:02:12.661Z,0.78
2019-04-27T08:04:42.061Z,0.10
2019-04-27T08:07:11.433Z,0.20
2019-04-27T08:09:40.823Z,0.20
2019-04-27T08:12:10.942Z,0.20
2019-04-27T08:14:41.436Z,6.40
2019-04-27T08:17:10.825Z,0.30
2019-04-27T08:19:40.275Z,0.93
2019-04-27T08:22:09.846Z,0.42
2019-04-27T08:24:39.687Z,0.20
2019-04-27T08:27:17.349Z,0.20
2019-04-27T08:30:04.635Z,0.20
2019-04-27T08:32:44.883Z,0.10
2019-04-27T08:35:14.499Z,0.23
2019-04-27T08:37:43.983Z,0.13
2019-04-27T08:40:14.772Z,0.20
2019-04-27T08:42:44.254Z,0.40
2019-04-27T08:45:13.776Z,1.37
2019-04-27T08:47:43.242Z,0.13
2019-04-27T08:50:13.824Z,0.23
2019-04-27T08:52:43.208Z,0.20
2019-04-27T08:55:13.035Z,0.10
2019-04-27T08:57:42.415Z,0.17
2019-04-27T09:00:12.356Z,2.63
2019-04-27T09:02:47.058Z,0.10
2019-04-27T09:05:13.214Z,0.30
2019-04-27T09:07:47.276Z,0.20
2019-04-27T09:10:18.808Z,0.77
2019-04-27T09:13:05.767Z,0.67
2019-04-27T09:15:39.431Z,0.40
2019-04-27T09:18:09.186Z,0.30
2019-04-27T09:20:51.910Z,0.20
2019-04-27T09:23:21.287Z,0.37
2019-04-27T09:25:50.676Z,0.30
2019-04-27T09:28:21.801Z,0.20
2019-04-27T09:30:51.287Z,0.13
2019-04-27T09:33:22.285Z,0.25
2019-04-27T09:35:51.826Z,0.17
2019-04-27T09:38:21.206Z,0.20
2019-04-27T09:40:50.597Z,0.23
2019-04-27T09:43:19.978Z,0.30
2019-04-27T09:45:49.386Z,0.10
2019-04-27T09:48:18.899Z,0.20
2019-04-27T09:50:48.271Z,0.17
2019-04-27T09:53:17.652Z,0.20
2019-04-27T09:55:47.048Z,0.20
2019-04-27T09:58:18.513Z,0.30
2019-04-27T10:00:49.415Z,0.20
2019-04-27T10:03:18.939Z,0.20
2019-04-27T10:05:48.328Z,0.43
2019-04-27T10:08:17.706Z,0.30
2019-04-27T10:10:47.992Z,0.20
2019-04-27T10:13:17.501Z,0.20
2019-04-27T10:15:46.888Z,0.10
2019-04-27T10:18:16.408Z,0.30
2019-04-27T10:20:58.174Z,0.15
2019-04-27T10:23:16.970Z,0.37
2019-04-27T10:25:46.844Z,0.37
2019-04-27T10:28:16.217Z,0.33
2019-04-27T10:30:45.842Z,0.20
2019-04-27T10:33:16.072Z,0.10
2019-04-27T10:35:47.211Z,0.68
2019-04-27T10:38:17.665Z,2.17
2019-04-27T10:40:47.029Z,0.30
2019-04-27T10:43:16.439Z,0.20
2019-04-27T10:45:46.405Z,0.20
2019-04-27T10:48:16.304Z,0.88
2019-04-27T10:50:46.929Z,0.60
2019-04-27T10:53:16.878Z,0.60
2019-04-27T10:55:47.450Z,0.65
2019-04-27T10:58:16.896Z,0.33
2019-04-27T11:00:50.931Z,0.30
2019-04-27T11:03:21.948Z,0.25
2019-04-27T11:06:05.912Z,1.63
2019-04-27T11:08:36.430Z,0.28
2019-04-27T11:11:06.301Z,0.30
2019-04-27T11:13:35.896Z,0.10
2019-04-27T11:16:06.844Z,1.17
2019-04-27T11:18:36.235Z,0.37
2019-04-27T11:21:05.813Z,0.40
2019-04-27T11:23:35.923Z,0.83
2019-04-27T11:26:07.464Z,0.20
2019-04-27T11:28:37.497Z,0.50
2019-04-27T11:31:07.919Z,1.10
2019-04-27T11:33:37.306Z,0.45
2019-04-27T11:36:17.242Z,0.50
2019-04-27T11:38:48.708Z,0.40
2019-04-27T11:41:18.457Z,0.20
2019-04-27T11:43:47.855Z,0.75
2019-04-27T11:46:17.248Z,1.40
2019-04-27T11:48:47.063Z,1.00
2019-04-27T11:51:17.421Z,1.50
2019-04-27T11:53:46.956Z,0.50
2019-04-27T11:56:17.733Z,0.40
2019-04-27T11:58:48.863Z,7.42
2019-04-27T12:01:18.269Z,0.78
2019-04-27T12:03:47.661Z,5.67
2019-04-27T12:06:17.023Z,0.50
2019-04-27T12:08:46.508Z,0.90
2019-04-27T12:11:16.774Z,0.30
2019-04-27T12:13:46.966Z,0.45
2019-04-27T12:16:17.640Z,0.40
2019-04-27T12:18:49.232Z,0.33
2019-04-27T12:21:19.616Z,0.30
2019-04-27T12:23:48.987Z,0.60
2019-04-27T12:26:31.813Z,1.27
2019-04-27T12:29:02.831Z,0.30
2019-04-27T12:31:42.870Z,0.93
2019-04-27T12:34:11.043Z,0.70
2019-04-27T12:36:40.435Z,0.20
2019-04-27T12:39:11.927Z,0.23
2019-04-27T12:41:42.544Z,0.40
2019-04-27T12:44:11.952Z,0.30
2019-04-27T12:46:41.339Z,1.37
2019-04-27T12:49:10.961Z,0.65
2019-04-27T12:51:40.418Z,1.37
2019-04-27T12:54:11.434Z,0.80
2019-04-27T12:56:42.471Z,0.53
2019-04-27T12:59:16.048Z,0.57
2019-04-27T13:01:46.250Z,0.20
2019-04-27T13:04:15.712Z,0.20
2019-04-27T13:06:46.880Z,0.20
2019-04-27T13:09:17.368Z,0.97
2019-04-27T13:11:46.756Z,4.17
2019-04-27T13:14:16.392Z,0.50
2019-04-27T13:16:47.468Z,1.67
2019-04-27T13:19:17.063Z,0.40
2019-04-27T13:21:47.047Z,1.50
2019-04-27T13:24:16.419Z,0.40
2019-04-27T13:26:45.800Z,0.83
2019-04-27T13:29:16.633Z,1.50
2019-04-27T13:31:46.129Z,0.82
2019-04-27T13:34:15.944Z,0.57
2019-04-27T13:36:45.794Z,0.85
2019-04-27T13:39:15.802Z,0.37
2019-04-27T13:41:46.328Z,0.33
2019-04-27T13:44:16.068Z,0.10
2019-04-27T13:47:02.873Z,0.40
2019-04-27T13:49:49.904Z,0.23
2019-04-27T13:52:21.009Z,1.00
2019-04-27T13:54:50.385Z,0.20
2019-04-27T13:57:19.775Z,0.88
2019-04-27T13:59:49.235Z,0.33
2019-04-27T14:02:19.234Z,0.20
2019-04-27T14:07:18.217Z,0.33
2019-04-27T14:09:48.643Z,0.62
2019-04-27T14:12:21.188Z,0.70
2019-04-27T14:14:51.066Z,1.25
2019-04-27T14:17:20.577Z,0.10
2019-04-27T14:19:49.987Z,1.90
2019-04-27T14:22:19.505Z,1.70
2019-04-27T14:24:49.054Z,29.97
2019-04-27T14:27:20.037Z,1.30
2019-04-27T14:29:49.410Z,8.20
2019-04-27T14:32:18.931Z,8.53
2019-04-27T14:34:50.343Z,0.78
2019-04-27T14:37:19.483Z,0.73
2019-04-27T14:39:48.863Z,0.42
2019-04-27T14:42:19.165Z,0.78
2019-04-27T14:44:49.068Z,1.17
2019-04-27T14:47:18.887Z,0.30
2019-04-27T14:49:49.148Z,0.40
2019-04-27T14:52:18.944Z,0.70
2019-04-27T14:54:50.895Z,2.92
2019-04-27T14:57:20.419Z,14.67
2019-04-27T14:59:50.058Z,64.33
2019-04-27T15:02:19.440Z,5.70
2019-04-27T15:04:49.800Z,1.72
2019-04-27T15:07:19.341Z,0.50
2019-04-27T15:09:49.686Z,1.27
2019-04-27T15:12:25.728Z,1.80
2019-04-27T15:14:53.258Z,2.47
2019-04-27T15:17:25.576Z,3.17
2019-04-27T15:20:00.380Z,1.52
2019-04-27T15:22:31.108Z,6.05
2019-04-27T15:25:12.536Z,4.05
2019-04-27T15:27:37.472Z,4.00
2019-04-27T15:30:11.537Z,6.28
2019-04-27T15:32:42.036Z,0.50
2019-04-27T15:35:14.151Z,46.13
2019-04-27T15:37:50.992Z,27.33
2019-04-27T15:40:24.745Z,6.90
2019-04-27T15:42:55.764Z,2.13
2019-04-27T15:45:25.155Z,2.67
2019-04-27T15:47:54.990Z,6.23
2019-04-27T15:50:28.495Z,5.03
2019-04-27T15:52:55.694Z,2.43
2019-04-27T15:55:34.432Z,54.98
2019-04-27T15:57:56.311Z,158.77
2019-04-27T16:00:28.850Z,352.13
2019-04-27T16:02:59.369Z,54.70
2019-04-27T16:05:32.307Z,176.87
2019-04-27T16:08:05.968Z,154.87
2019-04-27T16:10:32.665Z,108.45
2019-04-27T16:13:06.826Z,256.66
2019-04-27T16:15:34.128Z,110.52
2019-04-27T16:18:03.692Z,59.27
2019-04-27T16:20:34.272Z,120.60
2019-04-27T16:23:04.915Z,13.65
2019-04-27T16:25:47.862Z,12.15
2019-04-27T16:28:09.797Z,8.33
2019-04-27T16:30:39.041Z,3.05
2019-04-27T16:33:08.761Z,0.30
2019-04-27T16:35:39.579Z,1.20
2019-04-27T16:38:13.076Z,0.47
2019-04-27T16:40:42.593Z,0.50
2019-04-27T16:43:11.971Z,0.23
2019-04-27T16:45:41.361Z,0.33
2019-04-27T16:48:11.309Z,0.40
2019-04-27T16:50:41.135Z,0.50
2019-04-27T16:53:12.608Z,1.02
2019-04-27T16:55:42.009Z,0.70
2019-04-27T16:58:16.017Z,0.87
2019-04-27T17:00:43.456Z,0.65
2019-04-27T17:03:12.848Z,2.22
2019-04-27T17:05:42.411Z,0.37
2019-04-27T17:08:21.596Z,0.68
2019-04-27T17:10:43.533Z,0.50
2019-04-27T17:13:14.724Z,0.62
2019-04-27T17:15:53.563Z,1.67
2019-04-27T17:18:25.490Z,1.42
2019-04-27T17:21:02.694Z,1.15
2019-04-27T17:23:31.429Z,0.50
2019-04-27T17:26:06.280Z,3.33
2019-04-27T17:28:51.475Z,0.80
2019-04-27T17:31:22.573Z,0.88
2019-04-27T17:33:53.591Z,1.37
2019-04-27T17:36:22.997Z,5.43
2019-04-27T17:38:52.396Z,2.55
2019-04-27T17:41:21.982Z,2.85
2019-04-27T17:43:52.360Z,1.27
2019-04-27T17:46:22.074Z,1.25
2019-04-27T17:48:51.499Z,1.30
2019-04-27T17:51:20.888Z,1.98
2019-04-27T17:53:50.285Z,1.87
2019-04-27T17:56:19.671Z,1.47
2019-04-27T17:58:49.121Z,2.15
2019-04-27T18:01:23.407Z,1.57
2019-04-27T18:03:58.417Z,1.70
2019-04-27T18:06:24.518Z,1.27
2019-04-27T18:08:55.026Z,2.57
2019-04-27T18:11:23.071Z,2.90
2019-04-27T18:13:55.927Z,3.42
2019-04-27T18:16:23.881Z,4.07
2019-04-27T18:19:08.016Z,2.77
2019-04-27T18:21:32.075Z,2.43
2019-04-27T18:24:03.094Z,4.27
2019-04-27T18:26:46.176Z,5.30
2019-04-27T18:29:05.418Z,2.20
2019-04-27T18:31:34.949Z,4.95
2019-04-27T18:34:09.906Z,3.27
2019-04-27T18:36:37.924Z,3.23
2019-04-27T18:39:10.448Z,6.33
2019-04-27T18:41:49.313Z,2.02
2019-04-27T18:44:12.342Z,1.60
2019-04-27T18:46:41.762Z,2.42
2019-04-27T18:49:22.620Z,1.65
2019-04-27T18:52:03.696Z,3.13
2019-04-27T18:54:28.835Z,3.42
2019-04-27T18:57:04.156Z,2.60
2019-04-27T18:59:29.375Z,1.97
2019-04-27T19:01:58.769Z,3.23
2019-04-27T19:04:28.225Z,3.12
2019-04-27T19:06:58.490Z,2.17
2019-04-27T19:09:28.771Z,3.13
2019-04-27T19:11:58.153Z,2.77
2019-04-27T19:14:28.290Z,2.17
2019-04-27T19:16:58.810Z,3.37
2019-04-27T19:19:28.229Z,3.70
2019-04-27T19:21:58.950Z,1.70
2019-04-27T19:24:28.443Z,2.15
2019-04-27T19:26:59.473Z,2.33
2019-04-27T19:29:30.566Z,2.83
2019-04-27T19:32:03.930Z,2.58
2019-04-27T19:34:33.375Z,2.22
2019-04-27T19:37:02.767Z,2.55
2019-04-27T19:39:32.225Z,2.10
2019-04-27T19:42:03.861Z,2.10
2019-04-27T19:44:32.704Z,1.75
2019-04-27T19:47:02.105Z,1.60
2019-04-27T19:49:31.915Z,5.05
2019-04-27T19:52:01.321Z,2.05
2019-04-27T19:54:30.953Z,1.40
2019-04-27T19:57:00.347Z,1.30
2019-04-27T19:59:34.205Z,2.15
2019-04-27T20:02:05.505Z,1.83
2019-04-27T20:04:36.537Z,1.40
2019-04-27T20:07:05.995Z,2.57
2019-04-27T20:09:37.144Z,2.00
2019-04-27T20:12:08.180Z,3.30
2019-04-27T20:14:55.517Z,4.80
2019-04-27T20:17:31.263Z,2.25
2019-04-27T20:20:02.149Z,1.65
2019-04-27T20:22:32.359Z,2.58
2019-04-27T20:25:02.124Z,1.40
2019-04-27T20:27:44.982Z,1.40
2019-04-27T20:30:06.315Z,1.23
2019-04-27T20:35:06.889Z,1.60
2019-04-27T20:37:36.329Z,1.20
2019-04-27T20:40:07.945Z,2.08
2019-04-27T20:42:37.318Z,2.17
2019-04-27T20:45:07.174Z,1.92
2019-04-27T20:47:37.276Z,3.30
2019-04-27T20:50:07.185Z,3.20
2019-04-27T20:52:41.024Z,2.33
2019-04-27T20:55:11.498Z,3.17
2019-04-27T20:57:41.858Z,2.50
2019-04-27T21:00:13.842Z,1.90
2019-04-27T21:02:55.605Z,3.90
2019-04-27T21:05:41.458Z,2.13
2019-04-27T21:08:12.211Z,3.33
2019-04-27T21:10:42.155Z,3.75
2019-04-27T21:13:12.061Z,2.20
2019-04-27T21:15:42.092Z,2.40
2019-04-27T21:18:12.189Z,3.42
2019-04-27T21:20:42.136Z,3.35
2019-04-27T21:23:12.254Z,9.05
2019-04-27T21:25:42.332Z,3.35
2019-04-27T21:28:18.089Z,6.37
2019-04-27T21:30:44.067Z,5.60
2019-04-27T21:33:13.515Z,3.42
2019-04-27T21:35:42.890Z,3.60
2019-04-27T21:38:12.449Z,2.85
2019-04-27T21:40:42.424Z,3.87
2019-04-27T21:43:14.623Z,2.92
2019-04-27T21:45:44.003Z,2.77
2019-04-27T21:48:13.393Z,1.60
2019-04-27T21:50:42.762Z,2.25
2019-04-27T21:56:21.087Z,2.72
2019-04-27T21:58:51.194Z,3.20
2019-04-27T22:01:23.020Z,1.87
2019-04-27T22:03:52.925Z,2.08
2019-04-27T22:06:22.599Z,3.30
2019-04-27T22:08:53.122Z,2.17
2019-04-27T22:11:22.737Z,2.83
2019-04-27T22:13:52.178Z,2.37
2019-04-27T22:16:21.859Z,1.90
2019-04-27T22:18:52.199Z,3.87
2019-04-27T22:21:21.845Z,2.10
2019-04-27T22:23:52.778Z,4.45
2019-04-27T22:26:22.168Z,1.40
2019-04-27T22:28:52.185Z,2.47
2019-04-27T22:31:22.679Z,1.73
2019-04-27T22:33:54.515Z,2.83
2019-04-27T22:36:23.282Z,2.80
2019-04-27T22:38:54.235Z,4.87
2019-04-27T22:41:41.694Z,1.30
2019-04-27T22:44:29.204Z,2.28
2019-04-27T22:46:58.810Z,3.10
2019-04-27T22:49:31.190Z,1.53
2019-04-27T22:52:01.561Z,2.50
2019-04-27T22:54:31.921Z,2.20
2019-04-27T22:57:03.042Z,2.90
2019-04-27T22:59:45.977Z,1.37
2019-04-27T23:02:17.065Z,1.80
2019-04-27T23:04:49.124Z,3.73
2019-04-27T23:07:21.153Z,1.94
2019-04-27T23:09:51.645Z,2.23
2019-04-27T23:12:22.971Z,2.53
2019-04-27T23:14:52.470Z,2.60
2019-04-27T23:17:41.497Z,2.95
2019-04-27T23:20:11.676Z,3.40
2019-04-27T23:22:41.107Z,4.62
2019-04-27T23:25:11.269Z,3.02
2019-04-27T23:27:41.678Z,2.35
2019-04-27T23:30:11.442Z,2.52
2019-04-27T23:32:48.151Z,1.62
2019-04-27T23:35:17.532Z,2.55
2019-04-27T23:37:47.154Z,3.35
2019-04-27T23:40:17.674Z,2.58
2019-04-27T23:42:47.610Z,2.58
2019-04-27T23:45:18.149Z,2.12
2019-04-27T23:47:48.287Z,4.20
2019-04-27T23:50:18.393Z,2.74
2019-04-27T23:52:59.241Z,2.80
2019-04-27T23:55:36.431Z,3.12
2019-04-27T23:58:05.802Z,2.12
